createdAt,value
2018-02-20T00:00:55.448Z,66.26
2018-02-20T00:03:25.183Z,66.27
2018-02-20T00:05:54.961Z,66.18
2018-02-20T00:08:24.835Z,66.38
2018-02-20T00:10:54.568Z,66.43
2018-02-20T00:13:24.430Z,66.46
2018-02-20T00:15:54.143Z,66.74
2018-02-20T00:18:23.869Z,67.06
2018-02-20T00:20:53.859Z,67.01
2018-02-20T00:23:23.629Z,66.93
2018-02-20T00:25:53.419Z,67.00
2018-02-20T00:28:24.046Z,67.34
2018-02-20T00:30:53.820Z,67.46
2018-02-20T00:33:23.597Z,67.54
2018-02-20T00:35:53.320Z,67.54
2018-02-20T00:38:23.843Z,67.95
2018-02-20T00:40:53.747Z,68.29
2018-02-20T00:43:23.538Z,68.34
2018-02-20T00:45:53.804Z,68.11
2018-02-20T00:48:23.766Z,68.01
2018-02-20T00:50:54.367Z,68.13
2018-02-20T00:53:24.287Z,68.27
2018-02-20T00:55:53.993Z,68.71
2018-02-20T00:58:23.811Z,68.90
2018-02-20T01:00:53.560Z,69.21
2018-02-20T01:03:23.432Z,69.41
2018-02-20T01:05:53.904Z,69.47
2018-02-20T01:08:23.673Z,69.65
2018-02-20T01:10:53.499Z,69.65
2018-02-20T01:13:23.193Z,69.90
2018-02-20T01:15:52.920Z,69.61
2018-02-20T01:18:22.730Z,69.98
2018-02-20T01:20:52.511Z,70.32
2018-02-20T01:23:23.224Z,70.04
2018-02-20T01:25:53.088Z,70.07
2018-02-20T01:28:22.813Z,70.14
2018-02-20T01:30:52.502Z,70.48
2018-02-20T01:33:22.351Z,70.51
2018-02-20T01:35:53.000Z,70.70
2018-02-20T01:38:22.762Z,70.72
2018-02-20T01:40:52.510Z,70.93
2018-02-20T01:43:22.367Z,71.14
2018-02-20T01:45:52.107Z,70.37
2018-02-20T01:48:21.796Z,70.50
2018-02-20T01:51:05.645Z,70.66
2018-02-20T01:53:35.372Z,71.17
2018-02-20T01:56:05.853Z,71.15
2018-02-20T01:58:35.573Z,71.36
2018-02-20T02:01:05.305Z,71.82
2018-02-20T02:03:35.077Z,72.03
2018-02-20T02:06:06.244Z,72.29
2018-02-20T02:08:37.479Z,72.28
2018-02-20T02:11:07.183Z,72.35
2018-02-20T02:13:36.884Z,72.04
2018-02-20T02:16:06.952Z,72.29
2018-02-20T02:18:36.752Z,71.96
2018-02-20T02:21:06.480Z,72.19
2018-02-20T02:23:36.187Z,72.30
2018-02-20T02:26:05.984Z,72.76
2018-02-20T02:28:35.803Z,72.57
2018-02-20T02:31:05.536Z,72.35
2018-02-20T02:33:35.245Z,72.30
2018-02-20T02:36:05.016Z,72.41
2018-02-20T02:38:34.861Z,72.52
2018-02-20T02:41:05.306Z,72.72
2018-02-20T02:43:35.804Z,72.85
2018-02-20T02:46:05.613Z,72.73
2018-02-20T02:48:35.364Z,72.65
2018-02-20T02:51:05.057Z,72.87
2018-02-20T02:53:34.743Z,72.85
2018-02-20T02:56:05.285Z,73.21
2018-02-20T02:58:35.244Z,73.40
2018-02-20T03:01:04.984Z,73.48
2018-02-20T03:03:34.778Z,73.38
2018-02-20T03:06:04.481Z,73.14
2018-02-20T03:08:34.188Z,73.41
2018-02-20T03:11:04.660Z,73.09
2018-02-20T03:13:34.506Z,73.30
2018-02-20T03:16:04.254Z,73.22
2018-02-20T03:18:33.932Z,73.48
2018-02-20T03:21:03.627Z,73.45
2018-02-20T03:23:33.324Z,73.81
2018-02-20T03:26:03.859Z,73.81
2018-02-20T03:28:34.088Z,73.87
2018-02-20T03:31:03.902Z,74.08
2018-02-20T03:33:33.622Z,74.27
2018-02-20T03:36:03.370Z,74.21
2018-02-20T03:38:33.964Z,74.32
2018-02-20T03:41:04.259Z,74.31
2018-02-20T03:43:34.877Z,74.38
2018-02-20T03:46:04.566Z,74.19
2018-02-20T03:48:34.257Z,74.24
2018-02-20T03:51:03.957Z,74.62
2018-02-20T03:53:34.544Z,74.65
2018-02-20T03:56:04.241Z,74.36
2018-02-20T03:58:33.940Z,74.39
2018-02-20T04:01:04.543Z,74.34
2018-02-20T04:03:34.221Z,74.50
2018-02-20T04:06:03.946Z,74.61
2018-02-20T04:08:33.740Z,74.52
2018-02-20T04:11:04.204Z,74.39
2018-02-20T04:13:33.943Z,73.90
2018-02-20T04:16:03.691Z,74.32
2018-02-20T04:18:33.495Z,74.63
2018-02-20T04:21:03.211Z,74.60
2018-02-20T04:23:32.938Z,74.51
2018-02-20T04:26:02.867Z,74.45
2018-02-20T04:28:32.621Z,74.40
2018-02-20T04:31:02.316Z,74.35
2018-02-20T04:33:32.271Z,74.20
2018-02-20T04:36:02.114Z,73.43
2018-02-20T04:38:32.612Z,73.64
2018-02-20T04:41:02.337Z,74.07
2018-02-20T04:43:32.072Z,74.70
2018-02-20T04:46:01.840Z,75.28
2018-02-20T04:48:31.625Z,75.46
2018-02-20T04:51:01.420Z,75.61
2018-02-20T04:53:31.129Z,75.48
2018-02-20T04:56:00.806Z,74.48
2018-02-20T04:58:31.440Z,74.65
2018-02-20T05:01:01.164Z,74.91
2018-02-20T05:03:30.852Z,74.87
2018-02-20T05:06:00.532Z,74.64
2018-02-20T05:08:30.278Z,74.33
2018-02-20T05:11:00.032Z,74.75
2018-02-20T05:13:29.750Z,74.57
2018-02-20T05:15:59.504Z,74.69
2018-02-20T05:18:30.057Z,75.30
2018-02-20T05:21:00.437Z,75.55
2018-02-20T05:23:30.204Z,75.61
2018-02-20T05:26:00.758Z,75.66
2018-02-20T05:28:30.492Z,76.30
2018-02-20T05:31:01.009Z,75.67
2018-02-20T05:33:31.586Z,75.71
2018-02-20T05:36:01.372Z,75.44
2018-02-20T05:38:37.911Z,75.33
2018-02-20T05:41:07.752Z,75.41
2018-02-20T05:43:38.019Z,75.59
2018-02-20T05:46:07.783Z,75.70
2018-02-20T05:48:37.639Z,75.83
2018-02-20T05:51:07.356Z,75.89
2018-02-20T05:53:37.040Z,75.98
2018-02-20T05:56:07.119Z,75.97
2018-02-20T05:58:37.685Z,75.92
2018-02-20T06:01:07.474Z,76.18
2018-02-20T06:03:37.988Z,75.84
2018-02-20T06:06:07.700Z,75.90
2018-02-20T06:08:37.511Z,75.67
2018-02-20T06:11:07.285Z,75.41
2018-02-20T06:13:37.049Z,75.64
2018-02-20T06:16:06.855Z,75.77
2018-02-20T06:18:37.314Z,75.82
2018-02-20T06:21:07.515Z,76.15
2018-02-20T06:23:38.072Z,75.97
2018-02-20T06:26:07.815Z,76.12
2018-02-20T06:28:37.595Z,76.34
2018-02-20T06:31:08.201Z,76.03
2018-02-20T06:33:37.918Z,75.68
2018-02-20T06:36:07.780Z,75.66
2018-02-20T06:38:38.335Z,75.80
2018-02-20T06:41:09.068Z,76.17
2018-02-20T06:43:38.884Z,76.05
2018-02-20T06:46:08.813Z,75.49
2018-02-20T06:48:39.494Z,75.46
2018-02-20T06:51:10.307Z,75.95
2018-02-20T06:53:40.868Z,76.25
2018-02-20T06:56:12.836Z,75.82
2018-02-20T06:58:43.881Z,76.19
2018-02-20T07:01:14.545Z,75.85
2018-02-20T07:03:45.176Z,75.91
2018-02-20T07:06:16.030Z,76.27
2018-02-20T07:08:46.097Z,76.21
2018-02-20T07:11:16.067Z,75.23
2018-02-20T07:13:46.438Z,76.01
2018-02-20T07:16:16.369Z,76.08
2018-02-20T07:18:46.368Z,75.50
2018-02-20T07:21:16.355Z,75.74
2018-02-20T07:23:46.517Z,75.61
2018-02-20T07:26:17.001Z,75.91
2018-02-20T07:28:46.898Z,76.46
2018-02-20T07:31:17.408Z,76.03
2018-02-20T07:33:47.151Z,76.31
2018-02-20T07:36:17.743Z,75.65
2018-02-20T07:38:47.721Z,75.40
2018-02-20T07:41:18.374Z,75.73
2018-02-20T07:43:48.233Z,75.80
2018-02-20T07:46:18.035Z,75.20
2018-02-20T07:48:47.867Z,75.08
2018-02-20T07:51:17.756Z,75.25
2018-02-20T07:53:48.991Z,75.37
2018-02-20T07:56:18.782Z,75.82
2018-02-20T07:58:48.589Z,75.41
2018-02-20T08:01:18.429Z,74.93
2018-02-20T08:03:49.143Z,74.62
2018-02-20T08:06:19.670Z,74.67
2018-02-20T08:08:50.402Z,74.07
2018-02-20T08:11:20.171Z,73.69
2018-02-20T08:13:49.898Z,74.18
2018-02-20T08:16:19.725Z,74.38
2018-02-20T08:18:49.465Z,73.79
2018-02-20T08:21:20.051Z,73.73
2018-02-20T08:23:50.573Z,73.48
2018-02-20T08:26:20.512Z,73.26
2018-02-20T08:28:50.981Z,72.89
2018-02-20T08:31:20.937Z,72.46
2018-02-20T08:33:50.633Z,72.22
2018-02-20T08:36:20.402Z,71.45
2018-02-20T08:38:50.094Z,71.63
2018-02-20T08:41:19.805Z,72.17
2018-02-20T08:43:49.565Z,71.86
2018-02-20T08:46:19.304Z,71.17
2018-02-20T08:48:49.082Z,70.29
2018-02-20T08:51:18.846Z,70.30
2018-02-20T08:53:48.829Z,70.19
2018-02-20T08:56:18.559Z,69.90
2018-02-20T08:58:48.278Z,69.55
2018-02-20T09:01:17.989Z,69.53
2018-02-20T09:03:47.890Z,69.64
2018-02-20T09:06:17.633Z,69.36
2018-02-20T09:08:47.382Z,68.51
2018-02-20T09:11:17.173Z,67.87
2018-02-20T09:13:46.891Z,67.61
2018-02-20T09:16:16.737Z,67.25
2018-02-20T09:18:46.448Z,67.89
2018-02-20T09:21:16.169Z,68.02
2018-02-20T09:23:46.039Z,67.60
2018-02-20T09:26:15.817Z,67.62
2018-02-20T09:28:45.574Z,67.71
2018-02-20T09:31:15.268Z,67.02
2018-02-20T09:33:45.008Z,66.63
2018-02-20T09:36:15.024Z,66.50
2018-02-20T09:38:44.720Z,66.14
2018-02-20T09:41:14.475Z,65.94
2018-02-20T09:43:44.283Z,65.76
2018-02-20T09:46:13.967Z,65.92
2018-02-20T09:48:43.724Z,65.04
2018-02-20T09:51:13.519Z,64.41
2018-02-20T09:53:43.313Z,63.24
2018-02-20T09:56:13.865Z,63.50
2018-02-20T09:58:43.667Z,63.39
2018-02-20T10:01:13.485Z,62.72
2018-02-20T10:03:43.308Z,63.85
2018-02-20T10:06:13.032Z,63.97
2018-02-20T10:08:42.908Z,63.36
2018-02-20T10:11:12.596Z,63.53
2018-02-20T10:13:43.218Z,63.74
2018-02-20T10:16:12.953Z,63.53
2018-02-20T10:18:42.690Z,63.63
2018-02-20T10:21:13.439Z,63.69
2018-02-20T10:23:44.233Z,63.39
2018-02-20T10:26:13.958Z,63.18
2018-02-20T10:28:43.656Z,63.08
2018-02-20T10:31:14.200Z,62.89
2018-02-20T10:33:43.932Z,62.39
2018-02-20T10:36:13.728Z,61.83
2018-02-20T10:38:43.609Z,60.17
2018-02-20T10:41:13.454Z,59.86
2018-02-20T10:43:43.991Z,60.12
2018-02-20T10:46:14.501Z,59.50
2018-02-20T10:48:44.453Z,59.31
2018-02-20T10:51:15.032Z,58.78
2018-02-20T10:53:44.857Z,57.39
2018-02-20T10:56:14.554Z,57.36
2018-02-20T10:58:45.162Z,56.42
2018-02-20T11:01:14.941Z,56.51
2018-02-20T11:03:44.794Z,56.51
2018-02-20T11:06:14.534Z,56.80
2018-02-20T11:08:44.351Z,56.48
2018-02-20T11:11:14.095Z,56.46
2018-02-20T11:13:44.592Z,56.59
2018-02-20T11:16:14.432Z,56.20
2018-02-20T11:18:44.229Z,55.52
2018-02-20T11:21:14.025Z,55.26
2018-02-20T11:23:44.624Z,55.02
2018-02-20T11:26:14.485Z,55.15
2018-02-20T11:28:45.025Z,56.22
2018-02-20T11:31:15.616Z,56.05
2018-02-20T11:33:46.176Z,56.51
2018-02-20T11:36:15.895Z,55.79
2018-02-20T11:38:45.607Z,55.88
2018-02-20T11:41:16.204Z,55.49
2018-02-20T11:43:45.906Z,55.77
2018-02-20T11:46:16.727Z,55.61
2018-02-20T11:48:46.432Z,55.12
2018-02-20T11:51:16.264Z,55.32
2018-02-20T11:53:46.016Z,55.28
2018-02-20T11:56:15.890Z,54.48
2018-02-20T11:58:45.760Z,54.19
2018-02-20T12:01:15.584Z,54.11
2018-02-20T12:03:45.477Z,54.11
2018-02-20T12:06:15.293Z,52.81
2018-02-20T12:08:45.789Z,53.30
2018-02-20T12:11:16.473Z,52.74
2018-02-20T12:13:46.290Z,52.93
2018-02-20T12:16:16.050Z,53.49
2018-02-20T12:18:45.803Z,52.88
2018-02-20T12:21:16.545Z,53.20
2018-02-20T12:23:47.081Z,53.27
2018-02-20T12:26:16.928Z,53.47
2018-02-20T12:28:46.822Z,52.56
2018-02-20T12:31:16.785Z,52.04
2018-02-20T12:33:46.545Z,52.35
2018-02-20T12:36:16.385Z,52.56
2018-02-20T12:38:46.128Z,52.01
2018-02-20T12:41:17.234Z,52.98
2018-02-20T12:43:47.046Z,53.03
2018-02-20T12:46:16.854Z,52.52
2018-02-20T12:48:46.585Z,52.53
2018-02-20T12:51:16.428Z,51.69
2018-02-20T12:53:47.139Z,50.88
2018-02-20T12:56:17.005Z,51.08
2018-02-20T12:58:46.895Z,51.22
2018-02-20T13:01:16.660Z,50.50
2018-02-20T13:03:46.504Z,49.84
2018-02-20T13:06:16.379Z,49.39
2018-02-20T13:08:46.113Z,49.26
2018-02-20T13:11:15.989Z,48.85
2018-02-20T13:13:46.479Z,48.53
2018-02-20T13:16:16.235Z,47.56
2018-02-20T13:18:48.360Z,46.30
2018-02-20T13:21:18.269Z,46.16
2018-02-20T13:23:48.004Z,46.33
2018-02-20T13:26:17.782Z,46.68
2018-02-20T13:28:47.607Z,47.41
2018-02-20T13:31:17.381Z,47.51
2018-02-20T13:33:47.199Z,48.20
2018-02-20T13:36:17.041Z,48.75
2018-02-20T13:38:46.922Z,49.04
2018-02-20T13:41:17.507Z,49.78
2018-02-20T13:43:47.316Z,48.36
2018-02-20T13:46:30.939Z,49.33
2018-02-20T13:49:00.757Z,48.53
2018-02-20T13:51:31.246Z,48.24
2018-02-20T13:54:01.005Z,47.73
2018-02-20T13:56:30.755Z,48.28
2018-02-20T13:59:00.561Z,48.01
2018-02-20T14:01:31.229Z,47.07
2018-02-20T14:04:01.044Z,49.31
2018-02-20T14:06:30.884Z,49.24
2018-02-20T14:09:00.647Z,46.56
2018-02-20T14:11:30.438Z,46.83
2018-02-20T14:14:00.338Z,46.48
2018-02-20T14:16:30.849Z,47.02
2018-02-20T14:19:00.625Z,44.65
2018-02-20T14:21:30.551Z,44.66
2018-02-20T14:24:00.374Z,45.09
2018-02-20T14:26:30.644Z,46.15
2018-02-20T14:29:00.538Z,46.23
2018-02-20T14:31:30.342Z,46.22
2018-02-20T14:34:00.256Z,46.68
2018-02-20T14:36:30.840Z,46.86
2018-02-20T14:39:00.769Z,46.81
2018-02-20T14:41:30.808Z,47.21
2018-02-20T14:44:00.662Z,47.05
2018-02-20T14:46:30.592Z,47.27
2018-02-20T14:49:01.125Z,47.96
2018-02-20T14:51:31.797Z,48.87
2018-02-20T14:54:01.612Z,49.24
2018-02-20T14:56:32.162Z,48.39
2018-02-20T14:59:01.974Z,48.70
2018-02-20T15:01:32.506Z,48.86
2018-02-20T15:04:03.236Z,48.89
2018-02-20T15:06:33.102Z,49.48
2018-02-20T15:09:02.894Z,49.08
2018-02-20T15:11:33.491Z,48.41
2018-02-20T15:14:03.235Z,47.80
2018-02-20T15:16:33.520Z,52.16
2018-02-20T15:19:03.320Z,47.25
2018-02-20T15:21:33.833Z,47.78
2018-02-20T15:24:03.816Z,48.38
2018-02-20T15:26:33.629Z,48.64
2018-02-20T15:29:03.525Z,48.85
2018-02-20T15:31:33.428Z,49.48
2018-02-20T15:34:03.288Z,49.78
2018-02-20T15:36:34.577Z,49.86
2018-02-20T15:39:04.535Z,50.02
2018-02-20T15:41:34.428Z,50.92
2018-02-20T15:44:04.147Z,51.08
2018-02-20T15:46:34.027Z,51.46
2018-02-20T15:49:03.845Z,51.36
2018-02-20T15:51:34.291Z,51.50
2018-02-20T15:54:04.324Z,52.20
2018-02-20T15:56:34.189Z,52.48
2018-02-20T15:59:04.020Z,52.53
2018-02-20T16:01:34.000Z,52.58
2018-02-20T16:04:04.422Z,52.79
2018-02-20T16:06:35.183Z,52.20
2018-02-20T16:09:05.328Z,51.72
2018-02-20T16:11:35.205Z,51.51
2018-02-20T16:14:05.055Z,51.21
2018-02-20T16:16:35.034Z,51.32
2018-02-20T16:19:04.824Z,51.89
2018-02-20T16:21:35.425Z,52.15
2018-02-20T16:24:05.636Z,52.20
2018-02-20T16:26:36.231Z,52.83
2018-02-20T16:29:06.098Z,55.98
2018-02-20T16:31:36.218Z,54.21
2018-02-20T16:34:06.141Z,54.74
2018-02-20T16:36:36.629Z,53.27
2018-02-20T16:39:07.021Z,52.56
2018-02-20T16:41:36.916Z,52.09
2018-02-20T16:44:07.452Z,53.56
2018-02-20T16:46:37.442Z,52.50
2018-02-20T16:49:07.231Z,51.96
2018-02-20T16:51:37.110Z,51.79
2018-02-20T16:54:07.115Z,51.90
2018-02-20T16:56:36.911Z,51.94
2018-02-20T16:59:06.679Z,51.85
2018-02-20T17:01:36.752Z,52.17
2018-02-20T17:04:07.357Z,52.57
2018-02-20T17:06:37.885Z,53.18
2018-02-20T17:09:07.707Z,53.86
2018-02-20T17:11:37.624Z,54.34
2018-02-20T17:14:07.489Z,54.61
2018-02-20T17:16:37.604Z,55.00
2018-02-20T17:19:07.439Z,55.30
2018-02-20T17:21:37.325Z,55.52
2018-02-20T17:24:07.401Z,55.86
2018-02-20T17:26:37.215Z,56.32
2018-02-20T17:29:07.056Z,56.52
2018-02-20T17:31:38.048Z,56.81
2018-02-20T17:34:07.918Z,56.70
2018-02-20T17:36:38.102Z,56.87
2018-02-20T17:39:08.060Z,56.92
2018-02-20T17:41:38.140Z,57.15
2018-02-20T17:44:08.010Z,57.40
2018-02-20T17:46:38.292Z,57.53
2018-02-20T17:49:08.871Z,57.52
2018-02-20T17:51:38.787Z,57.84
2018-02-20T17:54:08.826Z,58.04
2018-02-20T17:56:39.451Z,58.22
2018-02-20T17:59:09.430Z,58.37
2018-02-20T18:01:39.257Z,58.43
2018-02-20T18:04:09.114Z,58.45
2018-02-20T18:06:38.944Z,58.67
2018-02-20T18:09:08.913Z,58.62
2018-02-20T18:11:38.737Z,58.73
2018-02-20T18:14:08.751Z,58.80
2018-02-20T18:16:38.718Z,58.98
2018-02-20T18:19:08.546Z,59.10
2018-02-20T18:21:38.500Z,59.21
2018-02-20T18:24:08.413Z,58.82
2018-02-20T18:26:38.960Z,58.92
2018-02-20T18:29:09.682Z,59.08
2018-02-20T18:31:39.730Z,59.10
2018-02-20T18:34:10.433Z,59.02
2018-02-20T18:36:41.527Z,58.81
2018-02-20T18:39:11.455Z,59.03
2018-02-20T18:41:41.997Z,59.12
2018-02-20T18:44:12.609Z,59.09
2018-02-20T18:46:42.957Z,59.28
2018-02-20T18:49:12.749Z,59.10
2018-02-20T18:51:43.401Z,59.34
2018-02-20T18:54:13.748Z,59.26
2018-02-20T18:56:43.593Z,59.29
2018-02-20T18:59:14.690Z,59.12
2018-02-20T19:01:44.413Z,59.27
2018-02-20T19:04:14.664Z,59.08
2018-02-20T19:06:44.513Z,59.07
2018-02-20T19:09:14.548Z,58.67
2018-02-20T19:11:44.488Z,58.54
2018-02-20T19:14:14.410Z,58.32
2018-02-20T19:16:45.193Z,58.73
2018-02-20T19:19:15.075Z,58.63
2018-02-20T19:21:45.938Z,58.43
2018-02-20T19:24:15.754Z,58.41
2018-02-20T19:26:45.780Z,58.21
2018-02-20T19:29:16.585Z,58.45
2018-02-20T19:31:46.743Z,58.38
2018-02-20T19:34:17.339Z,58.13
2018-02-20T19:36:48.862Z,58.23
2018-02-20T19:39:19.396Z,58.29
2018-02-20T19:44:31.442Z,58.68
2018-02-20T19:47:02.392Z,58.54
2018-02-20T19:49:33.052Z,58.73
2018-02-20T19:52:03.101Z,58.62
2018-02-20T19:54:32.890Z,58.67
2018-02-20T19:57:02.714Z,58.69
2018-02-20T19:59:33.580Z,59.01
2018-02-20T20:02:03.770Z,59.12
2018-02-20T20:04:33.592Z,59.07
2018-02-20T20:07:04.909Z,59.26
2018-02-20T20:09:34.721Z,59.14
2018-02-20T20:12:04.924Z,59.41
2018-02-20T20:14:35.157Z,59.32
2018-02-20T20:17:05.170Z,59.25
2018-02-20T20:19:35.057Z,59.50
2018-02-20T20:22:04.957Z,59.67
2018-02-20T20:24:35.933Z,59.53
2018-02-20T20:27:06.450Z,59.78
2018-02-20T20:29:36.240Z,60.00
2018-02-20T20:32:06.131Z,59.92
2018-02-20T20:34:36.935Z,60.06
2018-02-20T20:37:09.446Z,60.26
2018-02-20T20:39:39.333Z,60.32
2018-02-20T20:42:09.309Z,60.27
2018-02-20T20:44:39.726Z,60.56
2018-02-20T20:47:09.504Z,60.63
2018-02-20T20:49:39.526Z,60.78
2018-02-20T20:52:11.028Z,60.95
2018-02-20T20:54:41.847Z,61.01
2018-02-20T20:57:13.343Z,61.00
2018-02-20T20:59:43.952Z,61.31
2018-02-20T21:02:13.795Z,61.40
2018-02-20T21:04:44.415Z,61.60
2018-02-20T21:07:14.168Z,61.76
2018-02-20T21:09:44.725Z,61.84
2018-02-20T21:12:14.517Z,62.11
2018-02-20T21:14:44.309Z,62.29
2018-02-20T21:17:14.098Z,62.66
2018-02-20T21:19:43.872Z,62.90
2018-02-20T21:22:13.677Z,62.97
2018-02-20T21:24:43.786Z,63.24
2018-02-20T21:27:13.642Z,63.38
2018-02-20T21:29:44.116Z,63.58
2018-02-20T21:32:14.653Z,63.72
2018-02-20T21:34:45.324Z,63.60
2018-02-20T21:37:15.120Z,63.84
2018-02-20T21:39:45.808Z,64.08
2018-02-20T21:42:15.793Z,64.12
2018-02-20T21:44:46.381Z,64.45
2018-02-20T21:47:16.400Z,64.71
2018-02-20T21:49:46.186Z,64.74
2018-02-20T21:52:16.769Z,64.98
2018-02-20T21:54:46.590Z,65.07
2018-02-20T21:57:17.052Z,65.11
2018-02-20T21:59:46.951Z,65.15
2018-02-20T22:02:16.847Z,65.27
2018-02-20T22:04:46.665Z,65.50
2018-02-20T22:07:17.443Z,65.55
2018-02-20T22:09:47.259Z,65.67
2018-02-20T22:12:17.159Z,65.92
2018-02-20T22:14:47.640Z,65.91
2018-02-20T22:17:17.441Z,65.94
2018-02-20T22:19:47.408Z,66.05
2018-02-20T22:22:17.312Z,66.19
2018-02-20T22:24:47.093Z,66.17
2018-02-20T22:27:17.922Z,66.31
2018-02-20T22:29:47.759Z,66.35
2018-02-20T22:32:17.580Z,66.25
2018-02-20T22:34:47.344Z,66.44
2018-02-20T22:37:17.423Z,67.01
2018-02-20T22:39:47.255Z,66.83
2018-02-20T22:42:17.230Z,66.94
2018-02-20T22:44:47.131Z,66.67
2018-02-20T22:47:17.753Z,66.84
2018-02-20T22:49:47.575Z,66.88
2018-02-20T22:52:17.734Z,66.95
2018-02-20T22:54:47.476Z,66.85
2018-02-20T22:57:18.224Z,66.87
2018-02-20T22:59:48.052Z,67.06
2018-02-20T23:02:17.902Z,67.16
2018-02-20T23:04:47.869Z,66.93
2018-02-20T23:07:17.797Z,66.75
2018-02-20T23:09:48.347Z,66.96
2018-02-20T23:12:18.076Z,67.18
2018-02-20T23:14:47.908Z,67.12
2018-02-20T23:17:17.692Z,67.29
2018-02-20T23:19:48.440Z,67.39
2018-02-20T23:22:19.011Z,67.51
2018-02-20T23:24:48.757Z,67.78
2018-02-20T23:27:18.494Z,67.66
2018-02-20T23:29:48.245Z,67.72
2018-02-20T23:32:18.055Z,67.85
2018-02-20T23:34:47.867Z,67.67
2018-02-20T23:37:17.578Z,67.87
2018-02-20T23:39:47.455Z,68.07
2018-02-20T23:42:17.938Z,68.46
2018-02-20T23:44:47.793Z,68.45
2018-02-20T23:47:17.542Z,68.63
2018-02-20T23:49:48.146Z,68.62
2018-02-20T23:52:17.877Z,70.28
2018-02-20T23:54:48.033Z,69.10
2018-02-20T23:57:18.541Z,68.06
2018-02-20T23:59:48.287Z,68.16
